Weather forecast for Mishelevka (Мишелевка)

Russia, 412 m
N52.890, E103.197


Sounding

Red line — air temperature ˚C.
Blue line — thermal bubble temperature ˚C.
Green line — dew point temperature ˚C.
Wind speed is in meters per second.

Table forecast

GFS 0.25˚ model

temp. wind gust humid. clouds prec. press. hpbl
Sat24 00:00 1 159.0 sse 2 4 51 100 0.0 1040 88
03:00 0 118.0 ese 2 5 70 100 0.0 1040 147
06:00 -1 130.0 se 3 7 55 100 0.1 1038 246
09:00 -0 133.0 se 5 9 57 100 0.3 1036 945
12:00 -0 119.0 ese 6 10 83 100 0.8 1033 738
15:00 3 140.0 se 6 8 66 100 0.8 1028 966
18:00 4 153.0 sse 5 8 75 100 0.2 1025 864
21:00 3 140.0 se 2 2 84 100 0.3 1025 41
 
Sun25 00:00 1 326.0 nw 1 1 91 100 0.0 1025 10
03:00 0 320.0 nw 3 4 93 100 0.0 1025 81
06:00 -0 316.0 nw 3 8 93 100 0.0 1025 253
09:00 1 310.0 nw 5 9 77 100 0.0 1026 507
12:00 4 325.0 nw 6 8 60 100 0.0 1025 1158
15:00 6 339.0 nnw 7 8 51 42 0.0 1024 1271
18:00 7 347.0 nnw 7 8 45 93 0.0 1023 1637
21:00 4 20.0 nne 5 7 59 20 0.0 1024 402
 
Mon26 00:00 1 334.0 nnw 3 6 74 100 0.0 1026 143
03:00 0 312.0 nw 4 9 76 7 0.0 1026 269
06:00 -1 303.0 wnw 5 14 83 12 0.0 1025 485
09:00 2 314.0 nw 8 13 67 86 0.0 1026 1323
12:00 4 314.0 nw 9 12 62 100 0.1 1025 1349
15:00 6 318.0 nw 9 12 55 97 0.3 1024 1749
18:00 8 325.0 nw 9 12 36 100 0.1 1023 2440
21:00 5 327.0 nnw 7 14 52 100 0.1 1025 1323
 
Tue27 00:00 3 320.0 nw 7 13 74 100 0.0 1027 1106
03:00 1 317.0 nw 5 12 85 100 0.1 1029 946
06:00 -1 305.0 nw 4 10 87 90 0.0 1029 411
09:00 1 316.0 nw 5 10 68 88 0.0 1029 933
12:00 4 316.0 nw 5 8 59 100 0.0 1028 1425
15:00 5 316.0 nw 4 7 54 100 0.1 1026 1454
18:00 7 338.0 nnw 4 7 46 76 0.0 1024 1591
21:00 5 22.0 nne 2 2 54 5 0.0 1023 21
 
Wed28 00:00 2 83.0 e 2 2 63 5 0.0 1023 11
03:00 1 107.0 ese 2 2 70 100 0.0 1022 15
06:00 -0 97.0 e 2 2 73 100 0.0 1022 13
09:00 3 284.0 wnw 2 3 61 100 0.0 1024 265
12:00 3 302.0 wnw 4 7 96 100 0.5 1025 340
15:00 6 334.0 nnw 6 8 64 62 0.6 1024 1105
18:00 9 5.0 n 4 5 49 46 0.0 1022 1517
21:00 6 98.0 e 3 5 61 92 0.0 1021 92
 

0.011 s